sensor_id;sensor_type;location;lat;lon;timestamp;temperature;humidity
2623;DHT22;1321;48.690;9.022;2024-02-26T00:02:22;9.50;5.80
2623;DHT22;1321;48.690;9.022;2024-02-26T00:04:50;9.50;7.30
2623;DHT22;1321;48.690;9.022;2024-02-26T00:07:18;9.40;8.50
2623;DHT22;1321;48.690;9.022;2024-02-26T00:09:46;9.40;11.50
2623;DHT22;1321;48.690;9.022;2024-02-26T00:12:16;9.40;22.90
2623;DHT22;1321;48.690;9.022;2024-02-26T00:14:44;9.30;11.40
2623;DHT22;1321;48.690;9.022;2024-02-26T00:17:14;9.30;13.30
2623;DHT22;1321;48.690;9.022;2024-02-26T00:19:42;9.30;10.90
2623;DHT22;1321;48.690;9.022;2024-02-26T00:22:10;9.30;7.90
2623;DHT22;1321;48.690;9.022;2024-02-26T00:24:40;9.30;7.50
2623;DHT22;1321;48.690;9.022;2024-02-26T00:27:08;9.40;7.40
2623;DHT22;1321;48.690;9.022;2024-02-26T00:29:37;9.50;8.70
2623;DHT22;1321;48.690;9.022;2024-02-26T00:32:06;9.40;9.50
2623;DHT22;1321;48.690;9.022;2024-02-26T00:34:34;9.40;8.60
2623;DHT22;1321;48.690;9.022;2024-02-26T00:37:02;9.50;10.00
2623;DHT22;1321;48.690;9.022;2024-02-26T00:39:31;9.50;8.40
2623;DHT22;1321;48.690;9.022;2024-02-26T00:41:59;9.50;8.70
2623;DHT22;1321;48.690;9.022;2024-02-26T00:44:27;9.50;8.60
2623;DHT22;1321;48.690;9.022;2024-02-26T00:46:57;9.50;8.70
2623;DHT22;1321;48.690;9.022;2024-02-26T00:49:25;9.50;7.40
2623;DHT22;1321;48.690;9.022;2024-02-26T00:51:53;9.50;5.20
2623;DHT22;1321;48.690;9.022;2024-02-26T00:54:21;9.50;4.50
2623;DHT22;1321;48.690;9.022;2024-02-26T00:56:50;9.50;3.80
2623;DHT22;1321;48.690;9.022;2024-02-26T00:59:18;9.50;2.40
2623;DHT22;1321;48.690;9.022;2024-02-26T01:01:46;9.50;2.40
2623;DHT22;1321;48.690;9.022;2024-02-26T01:04:16;9.60;3.70
2623;DHT22;1321;48.690;9.022;2024-02-26T01:06:44;9.60;4.50
2623;DHT22;1321;48.690;9.022;2024-02-26T01:09:12;9.60;3.70
2623;DHT22;1321;48.690;9.022;2024-02-26T01:11:40;9.50;3.50
2623;DHT22;1321;48.690;9.022;2024-02-26T01:14:09;9.60;4.70
2623;DHT22;1321;48.690;9.022;2024-02-26T01:16:37;9.60;4.40
2623;DHT22;1321;48.690;9.022;2024-02-26T01:19:05;9.60;2.50
2623;DHT22;1321;48.690;9.022;2024-02-26T01:21:35;9.50;2.30
2623;DHT22;1321;48.690;9.022;2024-02-26T01:24:03;9.50;2.50
2623;DHT22;1321;48.690;9.022;2024-02-26T01:26:31;9.60;3.40
2623;DHT22;1321;48.690;9.022;2024-02-26T01:29:00;9.70;4.20
2623;DHT22;1321;48.690;9.022;2024-02-26T01:31:28;9.60;3.20
2623;DHT22;1321;48.690;9.022;2024-02-26T01:33:57;9.70;4.10
2623;DHT22;1321;48.690;9.022;2024-02-26T01:36:25;9.60;3.50
2623;DHT22;1321;48.690;9.022;2024-02-26T01:38:54;9.60;3.30
2623;DHT22;1321;48.690;9.022;2024-02-26T01:41:23;9.50;2.50
2623;DHT22;1321;48.690;9.022;2024-02-26T01:43:51;9.50;13.00
2623;DHT22;1321;48.690;9.022;2024-02-26T01:46:19;9.50;2.80
2623;DHT22;1321;48.690;9.022;2024-02-26T01:48:48;9.50;2.50
2623;DHT22;1321;48.690;9.022;2024-02-26T01:51:18;9.50;2.30
2623;DHT22;1321;48.690;9.022;2024-02-26T01:53:46;9.50;2.50
2623;DHT22;1321;48.690;9.022;2024-02-26T01:56:17;9.50;2.50
2623;DHT22;1321;48.690;9.022;2024-02-26T01:58:46;9.60;3.10
2623;DHT22;1321;48.690;9.022;2024-02-26T02:01:15;9.70;2.10
2623;DHT22;1321;48.690;9.022;2024-02-26T02:03:46;9.70;1.90
2623;DHT22;1321;48.690;9.022;2024-02-26T02:06:14;9.80;4.30
2623;DHT22;1321;48.690;9.022;2024-02-26T02:08:43;9.80;8.00
2623;DHT22;1321;48.690;9.022;2024-02-26T02:11:11;9.80;8.80
2623;DHT22;1321;48.690;9.022;2024-02-26T02:13:43;9.80;11.10
2623;DHT22;1321;48.690;9.022;2024-02-26T02:16:11;9.90;17.30
2623;DHT22;1321;48.690;9.022;2024-02-26T02:18:39;9.80;19.60
2623;DHT22;1321;48.690;9.022;2024-02-26T02:21:09;9.80;23.10
2623;DHT22;1321;48.690;9.022;2024-02-26T02:23:38;9.80;24.60
2623;DHT22;1321;48.690;9.022;2024-02-26T02:26:07;9.80;25.50
2623;DHT22;1321;48.690;9.022;2024-02-26T02:28:35;9.80;33.30
2623;DHT22;1321;48.690;9.022;2024-02-26T02:31:03;9.90;27.30
2623;DHT22;1321;48.690;9.022;2024-02-26T02:33:32;9.90;26.90
2623;DHT22;1321;48.690;9.022;2024-02-26T02:36:01;10.00;26.00
2623;DHT22;1321;48.690;9.022;2024-02-26T02:38:31;10.00;24.50
2623;DHT22;1321;48.690;9.022;2024-02-26T02:41:00;10.00;23.60
2623;DHT22;1321;48.690;9.022;2024-02-26T02:43:28;9.90;22.90
2623;DHT22;1321;48.690;9.022;2024-02-26T02:45:56;9.90;21.60
2623;DHT22;1321;48.690;9.022;2024-02-26T02:48:25;9.80;18.10
2623;DHT22;1321;48.690;9.022;2024-02-26T02:50:53;9.80;18.40
2623;DHT22;1321;48.690;9.022;2024-02-26T02:53:21;9.80;17.30
2623;DHT22;1321;48.690;9.022;2024-02-26T02:55:51;9.90;18.10
2623;DHT22;1321;48.690;9.022;2024-02-26T02:58:19;9.80;14.90
2623;DHT22;1321;48.690;9.022;2024-02-26T03:00:47;9.70;15.50
2623;DHT22;1321;48.690;9.022;2024-02-26T03:03:16;9.80;16.30
2623;DHT22;1321;48.690;9.022;2024-02-26T03:05:44;9.80;18.70
2623;DHT22;1321;48.690;9.022;2024-02-26T03:08:12;10.00;21.50
2623;DHT22;1321;48.690;9.022;2024-02-26T03:10:40;10.00;21.00
2623;DHT22;1321;48.690;9.022;2024-02-26T03:13:11;10.00;22.90
2623;DHT22;1321;48.690;9.022;2024-02-26T03:15:40;10.00;25.60
2623;DHT22;1321;48.690;9.022;2024-02-26T03:18:08;9.90;29.20
2623;DHT22;1321;48.690;9.022;2024-02-26T03:20:36;9.90;33.20
2623;DHT22;1321;48.690;9.022;2024-02-26T03:23:04;9.90;33.50
2623;DHT22;1321;48.690;9.022;2024-02-26T03:25:33;9.90;36.70
2623;DHT22;1321;48.690;9.022;2024-02-26T03:28:01;9.90;36.20
2623;DHT22;1321;48.690;9.022;2024-02-26T03:30:30;9.80;33.30
2623;DHT22;1321;48.690;9.022;2024-02-26T03:32:59;9.80;35.00
2623;DHT22;1321;48.690;9.022;2024-02-26T03:35:27;9.80;37.80
2623;DHT22;1321;48.690;9.022;2024-02-26T03:37:55;9.80;38.90
2623;DHT22;1321;48.690;9.022;2024-02-26T03:40:23;9.80;42.90
2623;DHT22;1321;48.690;9.022;2024-02-26T03:42:51;9.70;49.20
2623;DHT22;1321;48.690;9.022;2024-02-26T03:45:20;9.60;54.20
2623;DHT22;1321;48.690;9.022;2024-02-26T03:47:50;9.60;51.90
2623;DHT22;1321;48.690;9.022;2024-02-26T03:50:18;9.60;70.40
2623;DHT22;1321;48.690;9.022;2024-02-26T03:52:46;9.70;53.30
2623;DHT22;1321;48.690;9.022;2024-02-26T03:55:15;9.60;54.30
2623;DHT22;1321;48.690;9.022;2024-02-26T03:57:45;9.60;51.00
2623;DHT22;1321;48.690;9.022;2024-02-26T04:00:14;9.60;46.70
2623;DHT22;1321;48.690;9.022;2024-02-26T04:02:42;9.60;46.20
2623;DHT22;1321;48.690;9.022;2024-02-26T04:05:12;9.60;46.30
2623;DHT22;1321;48.690;9.022;2024-02-26T04:07:40;9.60;46.00
2623;DHT22;1321;48.690;9.022;2024-02-26T04:10:09;9.70;48.50
2623;DHT22;1321;48.690;9.022;2024-02-26T04:12:38;9.70;54.30
2623;DHT22;1321;48.690;9.022;2024-02-26T04:15:08;9.70;60.70
2623;DHT22;1321;48.690;9.022;2024-02-26T04:17:37;9.60;67.30
2623;DHT22;1321;48.690;9.022;2024-02-26T04:20:07;9.60;66.50
2623;DHT22;1321;48.690;9.022;2024-02-26T04:22:38;9.50;62.70
2623;DHT22;1321;48.690;9.022;2024-02-26T04:25:06;9.60;61.50
2623;DHT22;1321;48.690;9.022;2024-02-26T04:27:34;9.60;60.60
2623;DHT22;1321;48.690;9.022;2024-02-26T04:30:04;9.60;60.30
2623;DHT22;1321;48.690;9.022;2024-02-26T04:32:32;9.50;61.90
2623;DHT22;1321;48.690;9.022;2024-02-26T04:35:01;9.40;58.70
2623;DHT22;1321;48.690;9.022;2024-02-26T04:37:30;9.30;57.80
2623;DHT22;1321;48.690;9.022;2024-02-26T04:40:00;9.30;56.60
2623;DHT22;1321;48.690;9.022;2024-02-26T04:42:29;9.40;55.20
2623;DHT22;1321;48.690;9.022;2024-02-26T04:44:58;9.40;53.20
2623;DHT22;1321;48.690;9.022;2024-02-26T04:47:26;9.40;70.10
2623;DHT22;1321;48.690;9.022;2024-02-26T04:49:54;9.50;52.20
2623;DHT22;1321;48.690;9.022;2024-02-26T04:52:22;9.50;49.10
2623;DHT22;1321;48.690;9.022;2024-02-26T04:54:51;9.50;48.40
2623;DHT22;1321;48.690;9.022;2024-02-26T04:57:21;9.50;48.10
2623;DHT22;1321;48.690;9.022;2024-02-26T04:59:49;9.40;47.10
2623;DHT22;1321;48.690;9.022;2024-02-26T05:02:18;9.30;46.80
2623;DHT22;1321;48.690;9.022;2024-02-26T05:04:46;9.40;47.00
2623;DHT22;1321;48.690;9.022;2024-02-26T05:07:14;9.30;48.10
2623;DHT22;1321;48.690;9.022;2024-02-26T05:09:44;9.30;48.30
2623;DHT22;1321;48.690;9.022;2024-02-26T05:12:13;9.30;51.50
2623;DHT22;1321;48.690;9.022;2024-02-26T05:14:42;9.30;51.70
2623;DHT22;1321;48.690;9.022;2024-02-26T05:17:11;9.30;54.40
2623;DHT22;1321;48.690;9.022;2024-02-26T05:19:39;9.30;53.90
2623;DHT22;1321;48.690;9.022;2024-02-26T05:22:07;9.30;54.80
2623;DHT22;1321;48.690;9.022;2024-02-26T05:24:37;9.30;57.60
2623;DHT22;1321;48.690;9.022;2024-02-26T05:27:06;9.40;68.30
2623;DHT22;1321;48.690;9.022;2024-02-26T05:29:34;9.40;72.10
2623;DHT22;1321;48.690;9.022;2024-02-26T05:32:05;9.40;70.00
2623;DHT22;1321;48.690;9.022;2024-02-26T05:34:33;9.40;69.30
2623;DHT22;1321;48.690;9.022;2024-02-26T05:37:02;9.30;71.30
2623;DHT22;1321;48.690;9.022;2024-02-26T05:39:30;9.30;72.40
2623;DHT22;1321;48.690;9.022;2024-02-26T05:41:58;9.30;77.90
2623;DHT22;1321;48.690;9.022;2024-02-26T05:44:27;9.30;76.70
2623;DHT22;1321;48.690;9.022;2024-02-26T05:46:55;9.20;84.00
2623;DHT22;1321;48.690;9.022;2024-02-26T05:49:25;9.20;88.10
2623;DHT22;1321;48.690;9.022;2024-02-26T05:51:53;9.20;92.00
2623;DHT22;1321;48.690;9.022;2024-02-26T05:54:21;9.20;97.50
2623;DHT22;1321;48.690;9.022;2024-02-26T05:56:49;9.10;99.90
2623;DHT22;1321;48.690;9.022;2024-02-26T05:59:18;9.00;99.90
2623;DHT22;1321;48.690;9.022;2024-02-26T06:01:46;8.90;99.90
2623;DHT22;1321;48.690;9.022;2024-02-26T06:04:15;8.90;99.90
2623;DHT22;1321;48.690;9.022;2024-02-26T06:06:45;8.90;99.90
2623;DHT22;1321;48.690;9.022;2024-02-26T06:09:14;8.90;99.90
2623;DHT22;1321;48.690;9.022;2024-02-26T06:11:42;8.90;99.90
2623;DHT22;1321;48.690;9.022;2024-02-26T06:14:10;8.90;99.90
2623;DHT22;1321;48.690;9.022;2024-02-26T06:16:40;8.90;99.90
2623;DHT22;1321;48.690;9.022;2024-02-26T06:19:08;8.90;99.90
2623;DHT22;1321;48.690;9.022;2024-02-26T06:21:39;8.90;99.90
2623;DHT22;1321;48.690;9.022;2024-02-26T06:24:09;8.90;99.90
2623;DHT22;1321;48.690;9.022;2024-02-26T06:26:37;8.80;99.90
2623;DHT22;1321;48.690;9.022;2024-02-26T06:29:05;8.80;99.90
2623;DHT22;1321;48.690;9.022;2024-02-26T06:31:33;8.80;99.90
2623;DHT22;1321;48.690;9.022;2024-02-26T06:34:01;8.80;99.90
2623;DHT22;1321;48.690;9.022;2024-02-26T06:36:30;8.70;99.90
2623;DHT22;1321;48.690;9.022;2024-02-26T06:39:00;8.70;99.90
2623;DHT22;1321;48.690;9.022;2024-02-26T06:41:29;8.70;99.90
2623;DHT22;1321;48.690;9.022;2024-02-26T06:43:57;8.70;99.90
2623;DHT22;1321;48.690;9.022;2024-02-26T06:46:26;8.80;99.90
2623;DHT22;1321;48.690;9.022;2024-02-26T06:48:55;8.80;99.90
2623;DHT22;1321;48.690;9.022;2024-02-26T06:51:24;8.80;99.90
2623;DHT22;1321;48.690;9.022;2024-02-26T06:53:52;8.90;99.90
2623;DHT22;1321;48.690;9.022;2024-02-26T06:56:20;8.90;99.90
2623;DHT22;1321;48.690;9.022;2024-02-26T06:58:50;8.90;99.90
2623;DHT22;1321;48.690;9.022;2024-02-26T07:01:18;9.00;99.90
2623;DHT22;1321;48.690;9.022;2024-02-26T07:03:46;9.10;99.90
2623;DHT22;1321;48.690;9.022;2024-02-26T07:06:14;9.00;99.90
2623;DHT22;1321;48.690;9.022;2024-02-26T07:08:43;9.10;99.90
2623;DHT22;1321;48.690;9.022;2024-02-26T07:11:11;9.10;99.90
2623;DHT22;1321;48.690;9.022;2024-02-26T07:13:40;9.10;99.90
2623;DHT22;1321;48.690;9.022;2024-02-26T07:16:10;9.20;99.90
2623;DHT22;1321;48.690;9.022;2024-02-26T07:18:39;9.10;99.90
2623;DHT22;1321;48.690;9.022;2024-02-26T07:21:07;9.20;99.90
2623;DHT22;1321;48.690;9.022;2024-02-26T07:23:36;9.20;99.90
2623;DHT22;1321;48.690;9.022;2024-02-26T07:26:04;9.20;99.90
2623;DHT22;1321;48.690;9.022;2024-02-26T07:28:32;9.30;99.90
2623;DHT22;1321;48.690;9.022;2024-02-26T07:31:01;9.20;99.90
2623;DHT22;1321;48.690;9.022;2024-02-26T07:33:31;9.30;99.90
2623;DHT22;1321;48.690;9.022;2024-02-26T07:35:59;9.30;99.90
2623;DHT22;1321;48.690;9.022;2024-02-26T07:38:27;9.30;99.90
2623;DHT22;1321;48.690;9.022;2024-02-26T07:41:08;9.20;99.90
2623;DHT22;1321;48.690;9.022;2024-02-26T07:43:37;9.20;99.90
2623;DHT22;1321;48.690;9.022;2024-02-26T07:46:05;9.20;99.90
2623;DHT22;1321;48.690;9.022;2024-02-26T07:48:35;9.30;99.90
2623;DHT22;1321;48.690;9.022;2024-02-26T07:51:04;9.30;99.90
2623;DHT22;1321;48.690;9.022;2024-02-26T07:53:32;9.20;99.90
2623;DHT22;1321;48.690;9.022;2024-02-26T07:56:00;9.30;99.90
2623;DHT22;1321;48.690;9.022;2024-02-26T07:58:30;9.50;99.90
2623;DHT22;1321;48.690;9.022;2024-02-26T08:01:00;9.50;99.90
2623;DHT22;1321;48.690;9.022;2024-02-26T08:03:28;9.50;99.90
2623;DHT22;1321;48.690;9.022;2024-02-26T08:05:58;9.40;99.90
2623;DHT22;1321;48.690;9.022;2024-02-26T08:08:29;9.50;99.90
2623;DHT22;1321;48.690;9.022;2024-02-26T08:10:57;9.60;99.90
2623;DHT22;1321;48.690;9.022;2024-02-26T08:13:26;9.60;99.90
2623;DHT22;1321;48.690;9.022;2024-02-26T08:15:54;9.50;99.90
2623;DHT22;1321;48.690;9.022;2024-02-26T08:18:22;9.60;99.90
2623;DHT22;1321;48.690;9.022;2024-02-26T08:20:51;9.70;99.90
2623;DHT22;1321;48.690;9.022;2024-02-26T08:23:20;9.80;99.90
2623;DHT22;1321;48.690;9.022;2024-02-26T08:25:50;9.70;99.90
2623;DHT22;1321;48.690;9.022;2024-02-26T08:28:18;9.80;99.90
2623;DHT22;1321;48.690;9.022;2024-02-26T08:30:47;9.80;99.90
2623;DHT22;1321;48.690;9.022;2024-02-26T08:33:15;9.70;99.90
2623;DHT22;1321;48.690;9.022;2024-02-26T08:35:43;9.70;99.90
2623;DHT22;1321;48.690;9.022;2024-02-26T08:38:12;9.80;99.90
2623;DHT22;1321;48.690;9.022;2024-02-26T08:40:41;9.70;99.90
2623;DHT22;1321;48.690;9.022;2024-02-26T08:43:10;9.70;99.90
2623;DHT22;1321;48.690;9.022;2024-02-26T08:45:38;9.80;99.90
2623;DHT22;1321;48.690;9.022;2024-02-26T08:48:07;9.80;99.90
2623;DHT22;1321;48.690;9.022;2024-02-26T08:50:35;9.90;99.90
2623;DHT22;1321;48.690;9.022;2024-02-26T08:53:04;9.80;99.90
2623;DHT22;1321;48.690;9.022;2024-02-26T08:55:33;9.60;99.90
2623;DHT22;1321;48.690;9.022;2024-02-26T08:58:03;9.50;99.90
2623;DHT22;1321;48.690;9.022;2024-02-26T09:00:31;9.60;99.90
2623;DHT22;1321;48.690;9.022;2024-02-26T09:03:00;9.70;99.90
2623;DHT22;1321;48.690;9.022;2024-02-26T09:05:31;9.80;99.90
2623;DHT22;1321;48.690;9.022;2024-02-26T09:07:59;9.80;99.90
2623;DHT22;1321;48.690;9.022;2024-02-26T09:10:28;9.80;99.90
2623;DHT22;1321;48.690;9.022;2024-02-26T09:12:56;9.90;99.90
2623;DHT22;1321;48.690;9.022;2024-02-26T09:15:25;9.90;99.90
2623;DHT22;1321;48.690;9.022;2024-02-26T09:17:54;9.90;99.90
2623;DHT22;1321;48.690;9.022;2024-02-26T09:20:23;9.90;99.90
2623;DHT22;1321;48.690;9.022;2024-02-26T09:22:51;9.90;99.90
2623;DHT22;1321;48.690;9.022;2024-02-26T09:25:20;9.90;99.90
2623;DHT22;1321;48.690;9.022;2024-02-26T09:27:48;10.00;99.90
2623;DHT22;1321;48.690;9.022;2024-02-26T09:30:17;10.00;99.90
2623;DHT22;1321;48.690;9.022;2024-02-26T09:32:47;10.10;99.90
2623;DHT22;1321;48.690;9.022;2024-02-26T09:35:16;10.20;99.90
2623;DHT22;1321;48.690;9.022;2024-02-26T09:37:44;10.30;99.90
2623;DHT22;1321;48.690;9.022;2024-02-26T09:40:13;10.40;99.90
2623;DHT22;1321;48.690;9.022;2024-02-26T09:42:43;10.50;99.90
2623;DHT22;1321;48.690;9.022;2024-02-26T09:45:17;11.00;99.90
2623;DHT22;1321;48.690;9.022;2024-02-26T09:47:48;11.50;99.90
2623;DHT22;1321;48.690;9.022;2024-02-26T09:50:17;11.80;99.90
2623;DHT22;1321;48.690;9.022;2024-02-26T09:52:51;12.20;99.90
2623;DHT22;1321;48.690;9.022;2024-02-26T09:55:19;12.50;99.90
2623;DHT22;1321;48.690;9.022;2024-02-26T09:57:48;12.50;99.90
2623;DHT22;1321;48.690;9.022;2024-02-26T10:00:21;12.30;99.90
2623;DHT22;1321;48.690;9.022;2024-02-26T10:02:51;12.20;99.90
2623;DHT22;1321;48.690;9.022;2024-02-26T10:05:19;12.20;99.90
2623;DHT22;1321;48.690;9.022;2024-02-26T10:07:49;12.30;99.90
2623;DHT22;1321;48.690;9.022;2024-02-26T10:10:18;12.40;99.90
2623;DHT22;1321;48.690;9.022;2024-02-26T10:12:47;12.90;99.90
2623;DHT22;1321;48.690;9.022;2024-02-26T10:15:15;13.30;99.90
2623;DHT22;1321;48.690;9.022;2024-02-26T10:17:43;13.80;99.90
2623;DHT22;1321;48.690;9.022;2024-02-26T10:20:15;14.30;99.90
2623;DHT22;1321;48.690;9.022;2024-02-26T10:22:45;14.20;99.90
2623;DHT22;1321;48.690;9.022;2024-02-26T10:25:13;14.10;99.90
2623;DHT22;1321;48.690;9.022;2024-02-26T10:27:42;13.80;99.90
2623;DHT22;1321;48.690;9.022;2024-02-26T10:30:16;13.50;99.90
2623;DHT22;1321;48.690;9.022;2024-02-26T10:32:46;13.30;99.90
2623;DHT22;1321;48.690;9.022;2024-02-26T10:35:17;13.20;99.90
2623;DHT22;1321;48.690;9.022;2024-02-26T10:37:46;12.70;97.30
2623;DHT22;1321;48.690;9.022;2024-02-26T10:40:15;12.80;97.70
2623;DHT22;1321;48.690;9.022;2024-02-26T10:42:44;13.00;99.90
2623;DHT22;1321;48.690;9.022;2024-02-26T10:45:13;13.00;98.60
2623;DHT22;1321;48.690;9.022;2024-02-26T10:47:42;13.10;99.90
2623;DHT22;1321;48.690;9.022;2024-02-26T10:50:13;13.20;99.90
2623;DHT22;1321;48.690;9.022;2024-02-26T10:52:45;13.60;99.90
2623;DHT22;1321;48.690;9.022;2024-02-26T10:55:16;13.90;99.90
2623;DHT22;1321;48.690;9.022;2024-02-26T10:57:47;14.10;99.90
2623;DHT22;1321;48.690;9.022;2024-02-26T11:00:18;14.80;99.90
2623;DHT22;1321;48.690;9.022;2024-02-26T11:02:47;15.50;99.90
2623;DHT22;1321;48.690;9.022;2024-02-26T11:05:17;16.50;99.90
2623;DHT22;1321;48.690;9.022;2024-02-26T11:07:47;17.70;99.90
2623;DHT22;1321;48.690;9.022;2024-02-26T11:10:18;18.60;99.90
2623;DHT22;1321;48.690;9.022;2024-02-26T11:12:48;19.70;99.90
2623;DHT22;1321;48.690;9.022;2024-02-26T11:15:18;18.80;99.90
2623;DHT22;1321;48.690;9.022;2024-02-26T11:17:48;18.70;99.90
2623;DHT22;1321;48.690;9.022;2024-02-26T11:20:17;18.50;99.90
2623;DHT22;1321;48.690;9.022;2024-02-26T11:22:49;18.00;99.90
2623;DHT22;1321;48.690;9.022;2024-02-26T11:25:17;16.60;91.20
2623;DHT22;1321;48.690;9.022;2024-02-26T11:27:50;16.10;85.00
2623;DHT22;1321;48.690;9.022;2024-02-26T11:30:19;15.90;85.50
2623;DHT22;1321;48.690;9.022;2024-02-26T11:32:49;15.70;83.00
2623;DHT22;1321;48.690;9.022;2024-02-26T11:35:19;15.40;78.30
2623;DHT22;1321;48.690;9.022;2024-02-26T11:37:56;15.20;77.70
2623;DHT22;1321;48.690;9.022;2024-02-26T11:40:28;14.70;68.80
2623;DHT22;1321;48.690;9.022;2024-02-26T11:42:56;14.20;79.30
2623;DHT22;1321;48.690;9.022;2024-02-26T11:45:50;13.80;57.50
2623;DHT22;1321;48.690;9.022;2024-02-26T11:48:23;13.60;57.40
2623;DHT22;1321;48.690;9.022;2024-02-26T11:50:53;13.60;59.10
2623;DHT22;1321;48.690;9.022;2024-02-26T11:53:26;13.50;59.20
2623;DHT22;1321;48.690;9.022;2024-02-26T11:56:17;13.50;60.80
2623;DHT22;1321;48.690;9.022;2024-02-26T11:58:48;13.50;62.40
2623;DHT22;1321;48.690;9.022;2024-02-26T12:01:36;13.40;60.20
2623;DHT22;1321;48.690;9.022;2024-02-26T12:04:06;13.10;57.00
2623;DHT22;1321;48.690;9.022;2024-02-26T12:06:42;13.00;56.30
2623;DHT22;1321;48.690;9.022;2024-02-26T12:09:12;13.00;57.40
2623;DHT22;1321;48.690;9.022;2024-02-26T12:11:42;13.00;57.50
2623;DHT22;1321;48.690;9.022;2024-02-26T12:14:11;12.90;57.90
2623;DHT22;1321;48.690;9.022;2024-02-26T12:16:40;12.80;56.40
2623;DHT22;1321;48.690;9.022;2024-02-26T12:19:09;12.80;56.90
2623;DHT22;1321;48.690;9.022;2024-02-26T12:21:38;12.80;59.00
2623;DHT22;1321;48.690;9.022;2024-02-26T12:24:12;12.90;59.70
2623;DHT22;1321;48.690;9.022;2024-02-26T12:26:41;12.90;60.00
2623;DHT22;1321;48.690;9.022;2024-02-26T12:29:10;12.90;60.60
2623;DHT22;1321;48.690;9.022;2024-02-26T12:31:39;13.00;61.70
2623;DHT22;1321;48.690;9.022;2024-02-26T12:34:08;13.10;63.00
2623;DHT22;1321;48.690;9.022;2024-02-26T12:36:38;13.10;62.30
2623;DHT22;1321;48.690;9.022;2024-02-26T12:39:07;13.10;63.50
2623;DHT22;1321;48.690;9.022;2024-02-26T12:41:39;13.30;67.10
2623;DHT22;1321;48.690;9.022;2024-02-26T12:44:08;13.40;69.70
2623;DHT22;1321;48.690;9.022;2024-02-26T12:46:36;13.50;73.20
2623;DHT22;1321;48.690;9.022;2024-02-26T12:49:05;13.50;73.00
2623;DHT22;1321;48.690;9.022;2024-02-26T12:51:35;13.60;74.30
2623;DHT22;1321;48.690;9.022;2024-02-26T12:54:03;13.70;76.50
2623;DHT22;1321;48.690;9.022;2024-02-26T12:56:32;13.70;77.70
2623;DHT22;1321;48.690;9.022;2024-02-26T12:59:02;13.70;78.10
2623;DHT22;1321;48.690;9.022;2024-02-26T13:01:31;13.80;79.20
2623;DHT22;1321;48.690;9.022;2024-02-26T13:04:00;13.70;76.80
2623;DHT22;1321;48.690;9.022;2024-02-26T13:06:33;13.60;77.00
2623;DHT22;1321;48.690;9.022;2024-02-26T13:09:03;13.70;76.80
2623;DHT22;1321;48.690;9.022;2024-02-26T13:11:31;13.70;78.20
2623;DHT22;1321;48.690;9.022;2024-02-26T13:14:01;13.70;80.70
2623;DHT22;1321;48.690;9.022;2024-02-26T13:16:33;13.80;83.20
2623;DHT22;1321;48.690;9.022;2024-02-26T13:19:08;13.90;82.10
2623;DHT22;1321;48.690;9.022;2024-02-26T13:21:37;13.90;83.60
2623;DHT22;1321;48.690;9.022;2024-02-26T13:24:06;13.90;82.60
2623;DHT22;1321;48.690;9.022;2024-02-26T13:26:34;13.90;80.70
2623;DHT22;1321;48.690;9.022;2024-02-26T13:29:04;13.90;80.60
2623;DHT22;1321;48.690;9.022;2024-02-26T13:31:38;13.90;84.30
2623;DHT22;1321;48.690;9.022;2024-02-26T13:34:11;14.00;85.70
2623;DHT22;1321;48.690;9.022;2024-02-26T13:36:39;14.00;84.00
2623;DHT22;1321;48.690;9.022;2024-02-26T13:39:08;14.00;83.60
2623;DHT22;1321;48.690;9.022;2024-02-26T13:41:40;14.10;86.30
2623;DHT22;1321;48.690;9.022;2024-02-26T13:44:11;14.00;84.40
2623;DHT22;1321;48.690;9.022;2024-02-26T13:46:40;14.00;83.20
2623;DHT22;1321;48.690;9.022;2024-02-26T13:49:09;14.00;84.00
2623;DHT22;1321;48.690;9.022;2024-02-26T13:51:38;14.00;96.40
2623;DHT22;1321;48.690;9.022;2024-02-26T13:54:06;14.00;85.10
2623;DHT22;1321;48.690;9.022;2024-02-26T13:56:36;14.00;85.50
2623;DHT22;1321;48.690;9.022;2024-02-26T13:59:05;14.10;87.50
2623;DHT22;1321;48.690;9.022;2024-02-26T14:01:35;14.20;89.60
2623;DHT22;1321;48.690;9.022;2024-02-26T14:04:03;14.20;90.60
2623;DHT22;1321;48.690;9.022;2024-02-26T14:06:31;14.30;90.80
2623;DHT22;1321;48.690;9.022;2024-02-26T14:09:00;14.30;89.60
2623;DHT22;1321;48.690;9.022;2024-02-26T14:11:28;14.20;85.60
2623;DHT22;1321;48.690;9.022;2024-02-26T14:13:58;14.20;83.50
2623;DHT22;1321;48.690;9.022;2024-02-26T14:16:26;14.20;85.20
2623;DHT22;1321;48.690;9.022;2024-02-26T14:18:59;14.30;83.40
2623;DHT22;1321;48.690;9.022;2024-02-26T14:21:27;14.30;84.40
2623;DHT22;1321;48.690;9.022;2024-02-26T14:23:56;14.20;80.80
2623;DHT22;1321;48.690;9.022;2024-02-26T14:26:24;14.20;80.30
2623;DHT22;1321;48.690;9.022;2024-02-26T14:28:53;14.20;78.60
2623;DHT22;1321;48.690;9.022;2024-02-26T14:31:21;14.20;80.50
2623;DHT22;1321;48.690;9.022;2024-02-26T14:33:49;14.20;79.80
2623;DHT22;1321;48.690;9.022;2024-02-26T14:36:22;14.20;80.70
2623;DHT22;1321;48.690;9.022;2024-02-26T14:38:51;14.20;79.30
2623;DHT22;1321;48.690;9.022;2024-02-26T14:41:19;14.20;80.10
2623;DHT22;1321;48.690;9.022;2024-02-26T14:43:48;14.20;81.10
2623;DHT22;1321;48.690;9.022;2024-02-26T14:46:17;14.10;79.50
2623;DHT22;1321;48.690;9.022;2024-02-26T14:48:45;14.20;80.30
2623;DHT22;1321;48.690;9.022;2024-02-26T14:51:13;14.10;82.20
2623;DHT22;1321;48.690;9.022;2024-02-26T14:53:43;14.20;83.50
2623;DHT22;1321;48.690;9.022;2024-02-26T14:56:11;14.20;84.10
2623;DHT22;1321;48.690;9.022;2024-02-26T14:58:40;14.20;82.40
2623;DHT22;1321;48.690;9.022;2024-02-26T15:01:08;14.20;84.30
2623;DHT22;1321;48.690;9.022;2024-02-26T15:03:37;14.10;82.10
2623;DHT22;1321;48.690;9.022;2024-02-26T15:06:05;14.10;80.20
2623;DHT22;1321;48.690;9.022;2024-02-26T15:08:34;14.10;81.50
2623;DHT22;1321;48.690;9.022;2024-02-26T15:11:03;14.00;81.00
2623;DHT22;1321;48.690;9.022;2024-02-26T15:13:32;14.00;80.80
2623;DHT22;1321;48.690;9.022;2024-02-26T15:16:00;14.00;81.40
2623;DHT22;1321;48.690;9.022;2024-02-26T15:18:29;14.00;84.10
2623;DHT22;1321;48.690;9.022;2024-02-26T15:20:57;14.00;83.10
2623;DHT22;1321;48.690;9.022;2024-02-26T15:23:25;13.90;82.40
2623;DHT22;1321;48.690;9.022;2024-02-26T15:25:55;14.00;82.80
2623;DHT22;1321;48.690;9.022;2024-02-26T15:28:24;13.90;82.70
2623;DHT22;1321;48.690;9.022;2024-02-26T15:30:54;13.90;81.70
2623;DHT22;1321;48.690;9.022;2024-02-26T15:33:23;13.80;83.40
2623;DHT22;1321;48.690;9.022;2024-02-26T15:35:51;13.80;94.80
2623;DHT22;1321;48.690;9.022;2024-02-26T15:38:20;13.80;80.50
2623;DHT22;1321;48.690;9.022;2024-02-26T15:40:48;13.80;80.00
2623;DHT22;1321;48.690;9.022;2024-02-26T15:43:16;13.80;78.10
2623;DHT22;1321;48.690;9.022;2024-02-26T15:45:48;13.70;76.80
2623;DHT22;1321;48.690;9.022;2024-02-26T15:48:16;13.70;76.30
2623;DHT22;1321;48.690;9.022;2024-02-26T15:50:44;13.60;76.40
2623;DHT22;1321;48.690;9.022;2024-02-26T15:53:13;13.60;73.90
2623;DHT22;1321;48.690;9.022;2024-02-26T15:55:41;13.60;74.70
2623;DHT22;1321;48.690;9.022;2024-02-26T15:58:09;13.60;75.10
2623;DHT22;1321;48.690;9.022;2024-02-26T16:00:41;13.60;73.80
2623;DHT22;1321;48.690;9.022;2024-02-26T16:03:11;13.50;72.60
2623;DHT22;1321;48.690;9.022;2024-02-26T16:05:39;13.50;73.20
2623;DHT22;1321;48.690;9.022;2024-02-26T16:08:14;13.50;73.60
2623;DHT22;1321;48.690;9.022;2024-02-26T16:10:47;13.50;73.40
2623;DHT22;1321;48.690;9.022;2024-02-26T16:13:16;13.50;74.00
2623;DHT22;1321;48.690;9.022;2024-02-26T16:15:50;13.40;73.90
2623;DHT22;1321;48.690;9.022;2024-02-26T16:18:21;13.40;72.30
2623;DHT22;1321;48.690;9.022;2024-02-26T16:20:50;13.30;72.80
2623;DHT22;1321;48.690;9.022;2024-02-26T16:23:18;13.30;72.70
2623;DHT22;1321;48.690;9.022;2024-02-26T16:25:47;13.30;75.40